createdAt,value
2018-09-29T00:01:47.142Z,11.73
2018-09-29T00:04:16.159Z,12.40
2018-09-29T00:06:45.349Z,11.43
2018-09-29T00:09:14.651Z,11.27
2018-09-29T00:11:44.018Z,12.03
2018-09-29T00:14:13.363Z,11.78
2018-09-29T00:16:42.528Z,12.40
2018-09-29T00:19:11.765Z,12.90
2018-09-29T00:21:40.929Z,11.30
2018-09-29T00:24:10.266Z,12.63
2018-09-29T00:26:40.470Z,11.93
2018-09-29T00:29:09.776Z,12.13
2018-09-29T00:31:39.035Z,12.03
2018-09-29T00:34:08.460Z,10.70
2018-09-29T00:36:37.643Z,12.13
2018-09-29T00:39:07.909Z,12.80
2018-09-29T00:41:37.328Z,12.18
2018-09-29T00:44:06.610Z,12.25
2018-09-29T00:46:35.855Z,12.50
2018-09-29T00:49:05.092Z,12.07
2018-09-29T00:51:34.356Z,12.90
2018-09-29T00:54:03.591Z,12.88
2018-09-29T00:56:32.751Z,13.03
2018-09-29T00:59:01.996Z,12.40
2018-09-29T01:01:31.160Z,12.43
2018-09-29T01:04:00.379Z,13.35
2018-09-29T01:06:29.548Z,13.28
2018-09-29T01:08:58.680Z,13.03
2018-09-29T01:11:27.936Z,11.90
2018-09-29T01:13:57.268Z,11.70
2018-09-29T01:16:26.558Z,13.10
2018-09-29T01:18:55.834Z,11.33
2018-09-29T01:21:25.071Z,13.58
2018-09-29T01:23:54.335Z,11.40
2018-09-29T01:26:23.559Z,12.23
2018-09-29T01:28:52.841Z,11.93
2018-09-29T01:31:22.163Z,11.07
2018-09-29T01:33:51.527Z,11.25
2018-09-29T01:36:20.864Z,13.22
2018-09-29T01:38:50.758Z,11.60
2018-09-29T01:41:20.071Z,11.83
2018-09-29T01:43:49.448Z,13.13
2018-09-29T01:46:18.683Z,10.65
2018-09-29T01:48:47.943Z,12.25
2018-09-29T01:51:17.174Z,11.10
2018-09-29T01:53:46.330Z,11.08
2018-09-29T01:56:15.567Z,10.65
2018-09-29T01:58:44.759Z,10.30
2018-09-29T02:01:14.131Z,9.75
2018-09-29T02:03:43.371Z,10.30
2018-09-29T02:06:12.732Z,10.23
2018-09-29T02:08:41.973Z,10.53
2018-09-29T02:11:11.243Z,12.28
2018-09-29T02:13:40.468Z,10.37
2018-09-29T02:16:09.744Z,10.05
2018-09-29T02:18:38.843Z,10.98
2018-09-29T02:21:08.130Z,11.33
2018-09-29T02:23:37.855Z,9.18
2018-09-29T02:26:07.240Z,7.70
2018-09-29T02:28:36.467Z,9.20
2018-09-29T02:31:05.662Z,7.72
2018-09-29T02:33:36.859Z,7.90
2018-09-29T02:36:06.175Z,9.10
2018-09-29T02:38:35.360Z,8.18
2018-09-29T02:41:04.588Z,8.20
2018-09-29T02:43:33.819Z,10.45
2018-09-29T02:46:02.961Z,7.43
2018-09-29T02:48:32.113Z,7.42
2018-09-29T02:51:01.240Z,7.47
2018-09-29T02:53:30.492Z,9.10
2018-09-29T02:55:59.753Z,8.35
2018-09-29T02:58:29.083Z,8.13
2018-09-29T03:00:58.348Z,7.10
2018-09-29T03:03:27.597Z,7.83
2018-09-29T03:05:56.866Z,7.80
2018-09-29T03:08:26.076Z,7.37
2018-09-29T03:10:55.257Z,8.98
2018-09-29T03:13:24.367Z,7.00
2018-09-29T03:15:53.750Z,7.50
2018-09-29T03:18:23.074Z,5.95
2018-09-29T03:20:52.442Z,8.00
2018-09-29T03:23:21.672Z,8.58
2018-09-29T03:25:50.942Z,5.87
2018-09-29T03:28:20.172Z,6.17
2018-09-29T03:30:49.352Z,7.30
2018-09-29T03:33:18.467Z,7.62
2018-09-29T03:35:47.664Z,6.17
2018-09-29T03:38:17.136Z,7.60
2018-09-29T03:40:50.941Z,6.70
2018-09-29T03:43:20.164Z,6.28
2018-09-29T03:45:49.547Z,7.28
2018-09-29T03:48:18.776Z,6.42
2018-09-29T03:50:47.941Z,6.57
2018-09-29T03:53:17.278Z,6.05
2018-09-29T03:55:46.418Z,7.62
2018-09-29T03:58:15.558Z,7.97
2018-09-29T04:00:44.951Z,6.62
2018-09-29T04:03:14.358Z,6.62
2018-09-29T04:05:43.659Z,8.65
2018-09-29T04:08:12.829Z,8.20
2018-09-29T04:10:42.056Z,9.88
2018-09-29T04:13:11.323Z,8.45
2018-09-29T04:15:40.527Z,8.93
2018-09-29T04:18:09.693Z,9.18
2018-09-29T04:20:38.839Z,9.20
2018-09-29T04:23:08.215Z,8.63
2018-09-29T04:25:37.453Z,8.20
2018-09-29T04:28:06.839Z,7.90
2018-09-29T04:30:36.115Z,8.18
2018-09-29T04:33:05.350Z,7.00
2018-09-29T04:35:34.713Z,8.10
2018-09-29T04:38:03.957Z,7.42
2018-09-29T04:40:33.128Z,7.45
2018-09-29T04:43:02.513Z,8.08
2018-09-29T04:45:31.745Z,7.72
2018-09-29T04:48:01.004Z,7.15
2018-09-29T04:50:30.339Z,7.58
2018-09-29T04:52:59.742Z,6.72
2018-09-29T04:55:28.919Z,8.68
2018-09-29T04:57:58.196Z,7.50
2018-09-29T05:00:27.463Z,9.58
2018-09-29T05:02:56.900Z,6.63
2018-09-29T05:05:26.220Z,9.00
2018-09-29T05:07:55.614Z,9.43
2018-09-29T05:10:24.940Z,7.12
2018-09-29T05:12:54.134Z,6.40
2018-09-29T05:15:23.542Z,6.75
2018-09-29T05:17:52.687Z,7.85
2018-09-29T05:20:21.836Z,10.85
2018-09-29T05:22:51.102Z,6.12
2018-09-29T05:25:20.484Z,7.25
2018-09-29T05:27:54.487Z,8.55
2018-09-29T05:30:23.738Z,6.60
2018-09-29T05:32:53.038Z,8.10
2018-09-29T05:35:22.338Z,9.13
2018-09-29T05:37:51.855Z,8.10
2018-09-29T05:40:21.127Z,6.37
2018-09-29T05:42:50.248Z,8.50
2018-09-29T05:45:19.409Z,7.53
2018-09-29T05:47:48.526Z,5.37
2018-09-29T05:50:17.786Z,6.90
2018-09-29T05:52:47.158Z,5.95
2018-09-29T05:55:16.347Z,9.95
2018-09-29T05:57:45.388Z,8.63
2018-09-29T06:00:14.549Z,7.50
2018-09-29T06:02:43.789Z,7.95
2018-09-29T06:05:12.895Z,6.58
2018-09-29T06:07:42.218Z,7.95
2018-09-29T06:10:11.279Z,7.30
2018-09-29T06:12:40.399Z,7.10
2018-09-29T06:15:09.571Z,7.80
2018-09-29T06:17:38.739Z,8.10
2018-09-29T06:20:08.007Z,6.35
2018-09-29T06:22:37.404Z,6.85
2018-09-29T06:25:06.596Z,5.87
2018-09-29T06:27:35.752Z,7.35
2018-09-29T06:30:05.002Z,6.13
2018-09-29T06:32:34.276Z,8.55
2018-09-29T06:35:03.388Z,6.60
2018-09-29T06:37:32.663Z,6.80
2018-09-29T06:40:04.226Z,6.67
2018-09-29T06:42:33.441Z,8.70
2018-09-29T06:45:02.656Z,6.70
2018-09-29T06:47:32.052Z,7.20
2018-09-29T06:50:01.435Z,6.50
2018-09-29T06:52:30.735Z,5.47
2018-09-29T06:54:59.906Z,8.08
2018-09-29T06:57:29.127Z,6.87
2018-09-29T06:59:58.404Z,8.25
2018-09-29T07:02:27.707Z,7.37
2018-09-29T07:04:57.295Z,8.45
2018-09-29T07:07:30.995Z,9.93
2018-09-29T07:10:00.153Z,9.80
2018-09-29T07:12:29.499Z,9.70
2018-09-29T07:14:58.735Z,6.00
2018-09-29T07:17:27.903Z,9.55
2018-09-29T07:19:57.099Z,6.47
2018-09-29T07:22:27.112Z,9.88
2018-09-29T07:24:56.719Z,8.53
2018-09-29T07:27:31.608Z,8.88
2018-09-29T07:30:30.714Z,7.30
2018-09-29T07:32:59.948Z,9.45
2018-09-29T07:35:29.092Z,11.13
2018-09-29T07:37:58.473Z,8.13
2018-09-29T07:40:27.442Z,8.60
2018-09-29T07:42:56.547Z,10.98
2018-09-29T07:45:25.643Z,6.97
2018-09-29T07:47:54.751Z,6.40
2018-09-29T07:50:23.914Z,8.75
2018-09-29T07:52:53.032Z,11.10
2018-09-29T07:55:22.243Z,6.50
2018-09-29T07:57:51.623Z,9.45
2018-09-29T08:00:21.047Z,8.30
2018-09-29T08:02:50.366Z,6.90
2018-09-29T08:05:19.419Z,9.70
2018-09-29T08:07:48.353Z,6.33
2018-09-29T08:10:17.241Z,7.67
2018-09-29T08:12:46.115Z,6.53
2018-09-29T08:15:14.988Z,9.88
2018-09-29T08:17:43.893Z,10.08
2018-09-29T08:20:12.818Z,8.70
2018-09-29T08:22:41.862Z,8.17
2018-09-29T08:25:10.773Z,9.33
2018-09-29T08:27:39.660Z,7.85
2018-09-29T08:30:08.607Z,8.10
2018-09-29T08:32:37.552Z,10.07
2018-09-29T08:35:20.395Z,8.25
2018-09-29T08:37:50.980Z,7.53
2018-09-29T08:40:19.939Z,5.75
2018-09-29T08:42:49.175Z,10.03
2018-09-29T08:45:18.038Z,8.93
2018-09-29T08:47:46.915Z,7.72
2018-09-29T08:50:15.928Z,8.33
2018-09-29T08:52:44.819Z,8.18
2018-09-29T08:55:13.738Z,8.33
2018-09-29T08:57:42.674Z,9.20
2018-09-29T09:00:11.644Z,6.45
2018-09-29T09:02:40.536Z,8.08
2018-09-29T09:05:09.527Z,8.48
2018-09-29T09:07:38.415Z,7.87
2018-09-29T09:10:07.306Z,7.80
2018-09-29T09:12:36.208Z,10.63
2018-09-29T09:15:05.173Z,6.75
2018-09-29T09:17:34.088Z,9.78
2018-09-29T09:20:03.013Z,8.88
2018-09-29T09:22:31.920Z,10.43
2018-09-29T09:25:00.807Z,8.45
2018-09-29T09:27:29.717Z,10.55
2018-09-29T09:29:58.796Z,7.75
2018-09-29T09:32:27.783Z,9.30
2018-09-29T09:34:56.695Z,10.20
2018-09-29T09:37:25.599Z,7.70
2018-09-29T09:39:54.460Z,11.70
2018-09-29T09:42:23.911Z,7.50
2018-09-29T09:44:53.000Z,8.30
2018-09-29T09:47:22.028Z,8.23
2018-09-29T09:49:50.915Z,11.28
2018-09-29T09:52:19.770Z,7.83
2018-09-29T09:54:48.683Z,9.13
2018-09-29T09:57:21.339Z,8.95
2018-09-29T09:59:50.627Z,10.50
2018-09-29T10:02:24.683Z,10.10
2018-09-29T10:04:53.643Z,8.85
2018-09-29T10:07:22.582Z,10.68
2018-09-29T10:09:51.491Z,9.37
2018-09-29T10:12:20.419Z,8.63
2018-09-29T10:14:49.288Z,9.83
2018-09-29T10:17:18.209Z,11.28
2018-09-29T10:19:47.128Z,9.63
2018-09-29T10:22:17.056Z,10.00
2018-09-29T10:24:45.960Z,10.00
2018-09-29T10:27:14.816Z,10.40
2018-09-29T10:29:44.771Z,8.68
2018-09-29T10:32:13.938Z,8.13
2018-09-29T10:34:42.855Z,10.33
2018-09-29T10:37:11.771Z,8.65
2018-09-29T10:39:40.780Z,10.50
2018-09-29T10:42:09.757Z,9.98
2018-09-29T10:44:38.728Z,9.08
2018-09-29T10:47:07.692Z,10.00
2018-09-29T10:49:36.624Z,10.45
2018-09-29T10:52:05.599Z,8.53
2018-09-29T10:54:34.495Z,9.58
2018-09-29T10:57:03.419Z,10.50
2018-09-29T10:59:32.420Z,10.50
2018-09-29T11:02:01.395Z,10.83
2018-09-29T11:04:30.783Z,13.35
2018-09-29T11:06:59.670Z,12.37
2018-09-29T11:09:28.767Z,10.37
2018-09-29T11:11:58.036Z,11.95
2018-09-29T11:14:27.107Z,8.90
2018-09-29T11:16:56.333Z,10.90
2018-09-29T11:19:25.216Z,9.83
2018-09-29T11:21:54.126Z,11.95
2018-09-29T11:24:23.089Z,10.63
2018-09-29T11:26:52.071Z,12.80
2018-09-29T11:29:21.314Z,11.33
2018-09-29T11:31:50.951Z,12.15
2018-09-29T11:34:21.428Z,11.55
2018-09-29T11:36:50.359Z,10.68
2018-09-29T11:39:19.281Z,9.88
2018-09-29T11:41:48.399Z,11.60
2018-09-29T11:44:17.663Z,10.18
2018-09-29T11:46:46.567Z,9.45
2018-09-29T11:49:15.439Z,10.18
2018-09-29T11:51:44.331Z,9.08
2018-09-29T11:54:13.252Z,11.12
2018-09-29T11:56:42.283Z,13.78
2018-09-29T11:59:11.143Z,11.12
2018-09-29T12:01:40.063Z,12.65
2018-09-29T12:04:08.968Z,11.03
2018-09-29T12:06:37.859Z,12.93
2018-09-29T12:09:09.938Z,9.35
2018-09-29T12:11:38.946Z,8.87
2018-09-29T12:14:07.967Z,9.83
2018-09-29T12:16:37.059Z,8.88
2018-09-29T12:19:05.998Z,9.60
2018-09-29T12:21:35.038Z,9.87
2018-09-29T12:24:03.959Z,9.05
2018-09-29T12:26:33.236Z,10.28
2018-09-29T12:29:02.172Z,8.37
2018-09-29T12:31:31.023Z,10.53
2018-09-29T12:33:59.894Z,12.98
2018-09-29T12:36:28.783Z,12.07
2018-09-29T12:38:58.550Z,8.63
2018-09-29T12:41:28.098Z,8.68
2018-09-29T12:43:58.884Z,12.43
2018-09-29T12:46:28.523Z,9.93
2018-09-29T12:48:57.982Z,7.17
2018-09-29T12:51:28.592Z,9.93
2018-09-29T12:53:58.155Z,8.53
2018-09-29T12:56:28.516Z,7.42
2018-09-29T12:58:57.798Z,8.85
2018-09-29T13:01:26.915Z,11.12
2018-09-29T13:03:55.959Z,8.05
2018-09-29T13:06:25.167Z,7.30
2018-09-29T13:08:54.637Z,8.53
2018-09-29T13:11:24.044Z,11.17
2018-09-29T13:13:53.350Z,9.83
2018-09-29T13:16:22.497Z,7.55
2018-09-29T13:18:51.610Z,7.37
2018-09-29T13:21:22.237Z,8.83
2018-09-29T13:23:51.769Z,6.90
2018-09-29T13:26:21.231Z,7.08
2018-09-29T13:28:50.510Z,9.50
2018-09-29T13:31:19.387Z,7.25
2018-09-29T13:33:48.348Z,9.10
2018-09-29T13:36:17.758Z,8.50
2018-09-29T13:38:48.284Z,8.03
2018-09-29T13:41:17.401Z,6.47
2018-09-29T13:43:46.787Z,9.20
2018-09-29T13:46:15.719Z,6.45
2018-09-29T13:48:44.594Z,9.33
2018-09-29T13:51:13.473Z,7.65
2018-09-29T13:53:42.571Z,7.40
2018-09-29T13:56:11.643Z,8.23
2018-09-29T13:58:40.539Z,7.28
2018-09-29T14:01:09.475Z,7.20
2018-09-29T14:03:38.415Z,9.13
2018-09-29T14:06:07.369Z,8.75
2018-09-29T14:08:36.314Z,7.80
2018-09-29T14:11:05.366Z,8.70
2018-09-29T14:13:36.378Z,7.20
2018-09-29T14:16:05.732Z,7.97
2018-09-29T14:18:35.103Z,7.30
2018-09-29T14:21:04.583Z,9.38
2018-09-29T14:23:34.962Z,8.68
2018-09-29T14:26:04.440Z,7.37
2018-09-29T14:28:33.658Z,6.50
2018-09-29T14:31:02.965Z,7.37
2018-09-29T14:33:32.155Z,7.53
2018-09-29T14:36:01.559Z,5.70
2018-09-29T14:38:30.827Z,8.48
2018-09-29T14:41:00.154Z,7.67
2018-09-29T14:43:29.418Z,9.18
2018-09-29T14:45:58.758Z,8.60
2018-09-29T14:48:28.046Z,6.67
2018-09-29T14:50:57.250Z,7.53
2018-09-29T14:53:26.444Z,9.30
2018-09-29T14:55:55.850Z,6.45
2018-09-29T14:58:25.157Z,5.30
2018-09-29T15:00:54.837Z,9.73
2018-09-29T15:03:24.085Z,6.08
2018-09-29T15:05:53.236Z,6.65
2018-09-29T15:08:22.463Z,5.80
2018-09-29T15:10:51.615Z,7.37
2018-09-29T15:13:20.751Z,8.78
2018-09-29T15:15:50.147Z,7.67
2018-09-29T15:18:19.455Z,7.30
2018-09-29T15:20:48.825Z,7.90
2018-09-29T15:23:18.074Z,6.25
2018-09-29T15:25:47.314Z,7.33
2018-09-29T15:28:16.543Z,8.75
2018-09-29T15:30:45.727Z,7.80
2018-09-29T15:33:15.018Z,7.65
2018-09-29T15:35:44.479Z,5.78
2018-09-29T15:38:14.015Z,7.08
2018-09-29T15:40:45.678Z,7.90
2018-09-29T15:43:14.987Z,7.57
2018-09-29T15:45:44.411Z,6.42
2018-09-29T15:48:13.912Z,6.10
2018-09-29T15:50:44.483Z,8.10
2018-09-29T15:53:13.612Z,7.53
2018-09-29T15:55:43.755Z,6.50
2018-09-29T15:58:14.072Z,6.47
2018-09-29T16:00:43.725Z,6.45
2018-09-29T16:03:12.987Z,5.72
2018-09-29T16:05:42.368Z,6.33
2018-09-29T16:08:11.591Z,5.78
2018-09-29T16:10:40.858Z,6.83
2018-09-29T16:13:10.295Z,7.00
2018-09-29T16:15:39.658Z,7.10
2018-09-29T16:18:08.904Z,6.10
2018-09-29T16:20:38.088Z,6.13
2018-09-29T16:23:07.399Z,4.72
2018-09-29T16:25:36.587Z,5.67
2018-09-29T16:28:05.971Z,6.25
2018-09-29T16:30:35.442Z,7.22
2018-09-29T16:33:06.693Z,5.92
2018-09-29T16:35:36.328Z,5.28
2018-09-29T16:38:05.254Z,6.62
2018-09-29T16:40:34.123Z,6.97
2018-09-29T16:43:03.511Z,4.87
2018-09-29T16:45:32.614Z,6.78
2018-09-29T16:48:01.737Z,4.83
2018-09-29T16:50:31.835Z,6.63
2018-09-29T16:53:01.090Z,5.65
2018-09-29T16:55:30.337Z,5.72
2018-09-29T16:57:59.491Z,6.50
2018-09-29T17:00:28.948Z,5.75
2018-09-29T17:02:57.840Z,5.83
2018-09-29T17:05:26.832Z,6.12
2018-09-29T17:07:57.420Z,6.63
2018-09-29T17:10:28.090Z,4.80
2018-09-29T17:12:57.007Z,7.10
2018-09-29T17:15:25.866Z,5.60
2018-09-29T17:17:54.815Z,6.73
2018-09-29T17:20:23.891Z,6.12
2018-09-29T17:22:52.800Z,7.45
2018-09-29T17:25:22.072Z,5.47
2018-09-29T17:27:52.008Z,6.10
2018-09-29T17:30:21.345Z,6.12
2018-09-29T17:32:50.351Z,7.80
2018-09-29T17:35:19.742Z,5.30
2018-09-29T17:37:48.588Z,8.05
2018-09-29T17:40:17.480Z,8.85
2018-09-29T17:42:46.339Z,6.50
2018-09-29T17:45:15.255Z,6.30
2018-09-29T17:47:44.152Z,5.50
2018-09-29T17:50:13.057Z,5.53
2018-09-29T17:52:41.963Z,12.37
2018-09-29T17:55:10.871Z,7.28
2018-09-29T17:57:39.747Z,6.25
2018-09-29T18:00:08.715Z,6.75
2018-09-29T18:02:37.565Z,6.10
2018-09-29T18:05:06.591Z,6.28
2018-09-29T18:07:35.483Z,6.03
2018-09-29T18:10:07.532Z,5.30
2018-09-29T18:12:36.470Z,5.78
2018-09-29T18:15:06.339Z,5.78
2018-09-29T18:17:35.607Z,5.08
2018-09-29T18:20:05.137Z,5.53
2018-09-29T18:22:36.006Z,4.37
2018-09-29T18:25:06.973Z,4.85
2018-09-29T18:27:36.122Z,6.87
2018-09-29T18:30:06.188Z,4.10
2018-09-29T18:32:35.395Z,4.87
2018-09-29T18:35:04.528Z,6.97
2018-09-29T18:37:33.740Z,4.30
2018-09-29T18:40:03.333Z,4.78
2018-09-29T18:42:33.301Z,5.30
2018-09-29T18:45:02.926Z,7.33
2018-09-29T18:47:31.887Z,8.10
2018-09-29T18:50:00.833Z,5.47
2018-09-29T18:52:30.432Z,5.37
2018-09-29T18:54:59.332Z,4.83
2018-09-29T18:57:28.298Z,3.95
2018-09-29T18:59:58.381Z,4.77
2018-09-29T19:02:27.716Z,4.15
2018-09-29T19:04:56.877Z,4.22
2018-09-29T19:07:27.681Z,3.33
2018-09-29T19:09:56.707Z,4.28
2018-09-29T19:12:28.111Z,5.10
2018-09-29T19:14:57.064Z,4.70
2018-09-29T19:17:25.969Z,4.23
2018-09-29T19:19:55.155Z,4.58
2018-09-29T19:22:24.919Z,4.70
2018-09-29T19:24:54.761Z,3.95
2018-09-29T19:27:24.487Z,5.47
2018-09-29T19:29:53.429Z,4.67
2018-09-29T19:32:23.299Z,6.15
2018-09-29T19:34:52.206Z,4.55
2018-09-29T19:37:21.155Z,4.60
2018-09-29T19:39:50.417Z,5.97
2018-09-29T19:42:19.543Z,4.00
2018-09-29T19:44:48.416Z,4.93
2018-09-29T19:47:17.347Z,5.78
2018-09-29T19:49:46.211Z,4.97
2018-09-29T19:52:15.118Z,5.75
2018-09-29T19:54:44.033Z,5.40
2018-09-29T19:57:13.012Z,4.87
2018-09-29T19:59:41.897Z,7.85
2018-09-29T20:02:10.778Z,5.03
2018-09-29T20:04:39.687Z,4.73
2018-09-29T20:07:11.440Z,5.70
2018-09-29T20:09:40.355Z,7.50
2018-09-29T20:12:09.220Z,6.58
2018-09-29T20:14:38.111Z,6.50
2018-09-29T20:17:07.005Z,6.23
2018-09-29T20:19:35.862Z,5.85
2018-09-29T20:22:06.391Z,5.22
2018-09-29T20:24:35.355Z,6.10
2018-09-29T20:27:04.251Z,6.40
2018-09-29T20:29:33.138Z,5.55
2018-09-29T20:32:02.023Z,5.83
2018-09-29T20:34:30.911Z,4.67
2018-09-29T20:36:59.770Z,3.87
2018-09-29T20:39:28.669Z,6.67
2018-09-29T20:41:57.575Z,4.63
2018-09-29T20:44:26.418Z,3.92
2018-09-29T20:46:55.319Z,4.25
2018-09-29T20:49:24.254Z,5.08
2018-09-29T20:51:53.197Z,3.93
2018-09-29T20:54:22.067Z,4.03
2018-09-29T20:56:50.945Z,4.62
2018-09-29T20:59:20.666Z,3.62
2018-09-29T21:01:49.602Z,3.85
2018-09-29T21:04:18.498Z,3.72
2018-09-29T21:06:47.376Z,5.62
2018-09-29T21:09:16.288Z,4.85
2018-09-29T21:11:45.144Z,5.10
2018-09-29T21:14:14.136Z,4.72
2018-09-29T21:16:42.987Z,4.10
2018-09-29T21:19:11.902Z,4.67
2018-09-29T21:21:40.761Z,5.22
2018-09-29T21:24:09.637Z,4.87
2018-09-29T21:26:38.547Z,4.00
2018-09-29T21:29:07.555Z,6.50
2018-09-29T21:31:37.135Z,4.83
2018-09-29T21:34:05.991Z,5.15
2018-09-29T21:36:34.976Z,4.28
2018-09-29T21:39:04.555Z,3.77
2018-09-29T21:41:33.431Z,3.42
2018-09-29T21:44:02.318Z,5.87
2018-09-29T21:46:31.204Z,3.80
2018-09-29T21:49:00.092Z,3.75
2018-09-29T21:51:28.991Z,2.97
2018-09-29T21:53:58.186Z,4.67
2018-09-29T21:56:27.596Z,4.20
2018-09-29T21:58:56.895Z,4.28
2018-09-29T22:01:31.842Z,3.05
2018-09-29T22:04:01.944Z,5.33
2018-09-29T22:06:31.168Z,6.50
2018-09-29T22:09:00.414Z,3.17
2018-09-29T22:11:29.303Z,3.25
2018-09-29T22:13:58.195Z,3.47
2018-09-29T22:16:27.071Z,3.67
2018-09-29T22:18:55.985Z,4.42
2018-09-29T22:21:24.869Z,4.30
2018-09-29T22:23:53.735Z,4.12
2018-09-29T22:26:22.998Z,4.47
2018-09-29T22:28:51.852Z,3.40
2018-09-29T22:31:20.751Z,3.57
2018-09-29T22:33:49.644Z,4.45
2018-09-29T22:36:18.511Z,3.50
2018-09-29T22:38:47.402Z,3.87
2018-09-29T22:41:16.279Z,3.20
2018-09-29T22:43:45.140Z,4.10
2018-09-29T22:46:13.999Z,3.98
2018-09-29T22:48:42.875Z,3.75
2018-09-29T22:51:11.749Z,3.70
2018-09-29T22:53:40.639Z,4.00
2018-09-29T22:56:09.503Z,3.33
2018-09-29T22:58:38.394Z,4.10
2018-09-29T23:01:07.526Z,3.87
2018-09-29T23:03:36.388Z,3.55
2018-09-29T23:06:05.271Z,4.67
2018-09-29T23:08:34.119Z,2.90
2018-09-29T23:11:03.014Z,3.67
2018-09-29T23:13:32.352Z,4.85
2018-09-29T23:16:01.343Z,2.92
2018-09-29T23:18:36.818Z,3.20
2018-09-29T23:21:05.755Z,3.85
2018-09-29T23:23:34.660Z,3.80
2018-09-29T23:26:03.550Z,3.05
2018-09-29T23:28:32.567Z,2.98
2018-09-29T23:31:01.451Z,3.20
2018-09-29T23:33:30.327Z,4.37
2018-09-29T23:35:59.210Z,3.17
2018-09-29T23:38:28.094Z,3.02
2018-09-29T23:40:56.950Z,4.53
2018-09-29T23:43:25.826Z,2.92
2018-09-29T23:45:54.944Z,2.87
2018-09-29T23:48:23.835Z,5.20
2018-09-29T23:50:52.735Z,3.85
2018-09-29T23:53:21.590Z,3.80
2018-09-29T23:55:50.507Z,3.20
2018-09-29T23:58:19.370Z,4.92
